Time;durP1;ratioP1;P1;durP2;ratioP2;P2;SDS_P1;SDS_P2;PMS_P1;PMS_P2;Temp;Humidity;BMP_temperature;BMP_pressure;BME280_temperature;BME280_humidity;BME280_pressure;Samples;Min_cycle;Max_cycle;Signal;HPM_P1;HPM_P2
2021/11/01 00:00:39;;;;;;;12.00;9.25;;;10.20;81.00;;;;;;5017879;28;20059;-65
2021/11/01 00:03:05;;;;;;;12.23;9.35;;;10.30;81.20;;;;;;5018312;28;20060;-66
2021/11/01 00:05:31;;;;;;;11.82;9.38;;;10.20;81.10;;;;;;5016858;28;20160;-65
2021/11/01 00:07:56;;;;;;;13.13;9.48;;;10.20;81.20;;;;;;5017209;28;20120;-65
2021/11/01 00:10:22;;;;;;;11.93;9.35;;;10.20;81.20;;;;;;5015523;28;20175;-65
2021/11/01 00:12:48;;;;;;;10.35;8.80;;;10.20;81.30;;;;;;5015851;28;20034;-65
2021/11/01 00:15:14;;;;;;;12.10;9.90;;;10.10;81.30;;;;;;5016516;28;20041;-65
2021/11/01 00:17:41;;;;;;;11.52;8.90;;;10.10;81.50;;;;;;5018009;28;20068;-66
2021/11/01 00:20:08;;;;;;;12.35;8.23;;;10.10;81.70;;;;;;5018203;28;20033;-66
2021/11/01 00:22:35;;;;;;;10.20;8.30;;;10.10;81.80;;;;;;5017882;28;20449;-65
2021/11/01 00:25:02;;;;;;;10.30;8.10;;;10.20;81.90;;;;;;5016028;28;20061;-65
2021/11/01 00:27:27;;;;;;;11.93;9.07;;;10.20;82.00;;;;;;5018189;28;20064;-66
2021/11/01 00:29:53;;;;;;;11.25;8.30;;;10.20;82.00;;;;;;5016445;28;20053;-66
2021/11/01 00:32:19;;;;;;;12.20;8.45;;;10.20;81.90;;;;;;5017047;28;20096;-66
2021/11/01 00:34:45;;;;;;;11.02;8.68;;;10.20;81.90;;;;;;5016110;28;20505;-68
2021/11/01 00:37:11;;;;;;;12.13;8.90;;;10.20;81.80;;;;;;5017937;28;20038;-66
2021/11/01 00:39:37;;;;;;;13.50;10.32;;;10.20;81.70;;;;;;5017576;28;20127;-66
2021/11/01 00:42:05;;;;;;;11.55;9.27;;;10.20;81.80;;;;;;5015163;28;20405;-66
2021/11/01 00:44:31;;;;;;;10.45;8.68;;;10.20;82.00;;;;;;5016491;28;20034;-66
2021/11/01 00:46:58;;;;;;;11.63;8.75;;;10.20;82.00;;;;;;5014758;28;20034;-66
2021/11/01 00:49:26;;;;;;;9.63;8.20;;;10.20;82.00;;;;;;5015295;28;20485;-66
2021/11/01 00:51:54;;;;;;;11.00;8.32;;;10.20;82.10;;;;;;5017341;28;20080;-66
2021/11/01 00:54:20;;;;;;;9.65;7.82;;;10.30;82.20;;;;;;5016738;28;20406;-66
2021/11/01 00:56:46;;;;;;;8.50;7.28;;;10.30;82.10;;;;;;5016616;28;20037;-66
2021/11/01 00:59:11;;;;;;;8.35;7.20;;;10.30;82.20;;;;;;5018001;28;20041;-65
2021/11/01 01:01:39;;;;;;;8.68;7.40;;;10.30;82.40;;;;;;5016893;28;20044;-66
2021/11/01 01:04:04;;;;;;;8.43;7.20;;;10.40;82.60;;;;;;5016555;28;20038;-66
2021/11/01 01:06:30;;;;;;;10.73;8.38;;;10.40;82.70;;;;;;5015176;28;20046;-66
2021/11/01 01:08:56;;;;;;;11.93;9.00;;;10.40;82.80;;;;;;5016880;28;20132;-66
2021/11/01 01:11:22;;;;;;;9.75;7.95;;;10.50;84.00;;;;;;5013621;28;20091;-65
2021/11/01 01:13:51;;;;;;;10.43;8.50;;;10.40;83.20;;;;;;5015574;28;20461;-66
2021/11/01 01:16:28;;;;;;;10.30;8.57;;;10.50;83.40;;;;;;5016210;28;20032;-66
2021/11/01 01:18:59;;;;;;;12.48;8.98;;;10.50;83.40;;;;;;5016837;28;20405;-66
2021/11/01 01:24:11;;;;;;;12.02;9.18;;;10.60;84.00;;;;;;5015356;28;20040;-66
2021/11/01 01:26:37;;;;;;;11.02;8.95;;;10.60;84.00;;;;;;5014363;28;20471;-66
2021/11/01 01:29:05;;;;;;;13.40;9.38;;;10.60;84.10;;;;;;5015793;28;20474;-66
2021/11/01 01:31:31;;;;;;;10.80;8.68;;;10.70;84.40;;;;;;5015281;28;20123;-66
2021/11/01 01:33:58;;;;;;;9.13;7.95;;;10.70;84.40;;;;;;5015441;28;20037;-66
2021/11/01 01:36:24;;;;;;;10.85;8.02;;;10.70;84.30;;;;;;5015050;28;20087;-66
2021/11/01 01:38:50;;;;;;;10.45;8.07;;;10.80;84.50;;;;;;5015735;28;20066;-66
2021/11/01 01:41:23;;;;;;;10.85;8.07;;;10.80;84.40;;;;;;5014686;28;20057;-66
2021/11/01 01:43:52;;;;;;;10.93;8.25;;;10.90;84.70;;;;;;5015758;28;20091;-66
2021/11/01 01:46:19;;;;;;;8.45;7.43;;;10.90;84.60;;;;;;5013627;28;20034;-66
2021/11/01 01:48:45;;;;;;;8.82;7.82;;;10.90;84.60;;;;;;5014586;28;20041;-65
2021/11/01 01:51:13;;;;;;;9.70;7.80;;;10.90;84.40;;;;;;5005963;28;20029;-66
2021/11/01 01:53:40;;;;;;;10.43;8.18;;;11.00;84.40;;;;;;5016303;28;20046;-66
2021/11/01 01:56:07;;;;;;;7.57;6.68;;;10.90;83.80;;;;;;5017853;28;20030;-65
2021/11/01 01:58:42;;;;;;;7.72;6.75;;;11.00;84.50;;;;;;5015817;28;20046;-66
2021/11/01 02:01:09;;;;;;;8.02;6.55;;;10.90;83.90;;;;;;5011667;28;20030;-66
2021/11/01 02:03:36;;;;;;;6.95;6.25;;;11.00;83.80;;;;;;5014514;28;20034;-66
2021/11/01 02:06:07;;;;;;;8.52;7.60;;;11.00;83.70;;;;;;5015968;28;20042;-65
2021/11/01 02:08:48;;;;;;;8.93;7.43;;;10.90;83.30;;;;;;5015175;28;20033;-66
2021/11/01 02:11:17;;;;;;;8.15;7.10;;;10.90;83.00;;;;;;5003686;28;20040;-66
2021/11/01 02:13:48;;;;;;;9.88;7.95;;;10.90;82.80;;;;;;5005914;28;20068;-65
2021/11/01 02:16:14;;;;;;;9.23;7.95;;;10.90;82.50;;;;;;5006412;28;20038;-66
2021/11/01 02:18:44;;;;;;;9.20;8.15;;;10.90;82.30;;;;;;5008698;28;20036;-65
2021/11/01 02:21:37;;;;;;;8.75;7.65;;;10.80;82.20;;;;;;5005956;28;20168;-65
2021/11/01 02:24:07;;;;;;;9.05;7.03;;;10.80;82.00;;;;;;5005790;28;20030;-66
2021/11/01 02:26:38;;;;;;;8.68;7.10;;;10.80;81.90;;;;;;5005233;28;20052;-66
2021/11/01 02:29:05;;;;;;;6.63;5.93;;;10.70;81.70;;;;;;5024835;28;21027;-66
2021/11/01 02:31:32;;;;;;;7.18;6.47;;;10.70;81.90;;;;;;5008264;28;20037;-65
2021/11/01 02:33:58;;;;;;;6.90;6.20;;;10.60;81.90;;;;;;5009762;28;20034;-65
2021/11/01 02:36:25;;;;;;;8.57;7.32;;;10.60;81.90;;;;;;5009332;28;20037;-66
2021/11/01 02:38:50;;;;;;;7.38;6.13;;;10.60;81.90;;;;;;5006807;28;20378;-65
2021/11/01 02:41:25;;;;;;;7.20;6.28;;;10.60;82.20;;;;;;5009771;28;20092;-66
2021/11/01 02:44:00;;;;;;;7.10;6.13;;;10.50;82.30;;;;;;5010334;28;20034;-66
2021/11/01 02:46:27;;;;;;;9.43;6.15;;;10.50;82.50;;;;;;5009336;28;20064;-66
2021/11/01 02:48:54;;;;;;;6.82;6.13;;;10.50;82.40;;;;;;5013235;28;20294;-66
2021/11/01 02:51:21;;;;;;;6.70;6.05;;;10.50;82.60;;;;;;5023455;28;20449;-66
2021/11/01 02:53:49;;;;;;;7.70;5.22;;;10.50;82.70;;;;;;5009708;28;20164;-66
2021/11/01 02:56:16;;;;;;;8.40;5.88;;;10.50;82.80;;;;;;5012340;28;20551;-65
2021/11/01 02:58:43;;;;;;;7.55;6.18;;;10.50;82.90;;;;;;5011323;28;20041;-65
2021/11/01 03:01:12;;;;;;;9.73;7.18;;;10.50;82.90;;;;;;4999785;28;20087;-65
2021/11/01 03:03:39;;;;;;;9.23;6.90;;;10.50;82.90;;;;;;5011795;28;20033;-65
2021/11/01 03:06:06;;;;;;;8.65;6.88;;;10.50;82.70;;;;;;5007936;28;20033;-65
2021/11/01 03:08:33;;;;;;;9.65;7.82;;;10.50;82.80;;;;;;5011670;28;20424;-66
2021/11/01 03:11:00;;;;;;;7.50;6.70;;;10.50;82.90;;;;;;5013166;28;20034;-65
2021/11/01 03:13:29;;;;;;;7.70;6.75;;;10.50;82.90;;;;;;5018121;28;20127;-65
2021/11/01 03:15:57;;;;;;;9.95;7.35;;;10.50;82.90;;;;;;5018473;28;20444;-65
2021/11/01 03:18:28;;;;;;;7.72;6.50;;;10.50;82.90;;;;;;5019295;28;20045;-65
2021/11/01 03:20:54;;;;;;;7.70;6.78;;;10.50;83.00;;;;;;5018421;28;20126;-66
2021/11/01 03:23:27;;;;;;;8.45;7.10;;;10.60;83.00;;;;;;5016817;28;20528;-65
2021/11/01 03:26:04;;;;;;;8.93;6.90;;;10.60;83.10;;;;;;5016433;28;20136;-65
2021/11/01 03:28:31;;;;;;;9.00;7.00;;;10.60;83.40;;;;;;5014807;28;20034;-66
2021/11/01 03:31:00;;;;;;;7.80;6.68;;;10.60;83.30;;;;;;5009141;28;20600;-65
2021/11/01 03:33:30;;;;;;;7.93;6.88;;;10.60;83.30;;;;;;5011037;28;20030;-67
2021/11/01 03:35:57;;;;;;;6.97;6.28;;;10.60;83.30;;;;;;5006886;28;20120;-66
2021/11/01 03:38:23;;;;;;;7.45;6.57;;;10.70;83.10;;;;;;5012907;28;20045;-65
2021/11/01 03:40:50;;;;;;;7.50;6.40;;;10.70;83.10;;;;;;5011515;28;20434;-66
2021/11/01 03:43:27;;;;;;;10.02;6.82;;;10.70;83.20;;;;;;5014379;28;20042;-66
2021/11/01 03:45:55;;;;;;;9.00;6.38;;;10.70;83.40;;;;;;5012826;28;20069;-67
2021/11/01 03:48:22;;;;;;;6.60;5.88;;;10.60;83.30;;;;;;5010651;28;20157;-68
2021/11/01 03:51:04;;;;;;;7.10;6.40;;;10.70;83.40;;;;;;5014119;28;20126;-65
2021/11/01 03:53:29;;;;;;;7.65;6.65;;;10.70;83.40;;;;;;5017555;28;20088;-64
2021/11/01 03:55:55;;;;;;;9.07;7.22;;;10.70;83.30;;;;;;5018836;28;20041;-65
2021/11/01 03:58:21;;;;;;;10.43;6.82;;;10.70;83.10;;;;;;5010909;28;20038;-65
2021/11/01 04:00:47;;;;;;;7.80;6.88;;;10.70;83.10;;;;;;4990157;28;20039;-67
2021/11/01 04:03:12;;;;;;;7.10;6.40;;;10.70;83.10;;;;;;4987678;28;20031;-67
2021/11/01 04:05:38;;;;;;;8.27;6.60;;;10.70;83.30;;;;;;4991358;28;20080;-68
2021/11/01 04:08:04;;;;;;;10.27;7.07;;;10.70;83.40;;;;;;4989501;28;20034;-65
2021/11/01 04:10:31;;;;;;;15.40;11.30;;;10.70;83.30;;;;;;4991127;28;20069;-65
2021/11/01 04:12:56;;;;;;;16.92;12.57;;;10.70;83.40;;;;;;4989333;28;20041;-65
2021/11/01 04:15:26;;;;;;;13.25;9.80;;;10.70;83.60;;;;;;4990626;28;20027;-67
2021/11/01 04:18:02;;;;;;;10.13;8.48;;;10.70;83.70;;;;;;4993925;28;20448;-65
2021/11/01 04:20:33;;;;;;;12.60;8.35;;;10.80;83.90;;;;;;4993867;28;20539;-68
2021/11/01 04:23:05;;;;;;;9.65;8.07;;;10.80;84.00;;;;;;4989308;28;20145;-65
2021/11/01 04:25:32;;;;;;;9.80;7.63;;;10.80;84.20;;;;;;4993924;28;20110;-65
2021/11/01 04:28:00;;;;;;;8.90;7.45;;;10.80;84.40;;;;;;4993416;28;20034;-68
2021/11/01 04:30:30;;;;;;;8.20;7.25;;;10.80;84.60;;;;;;4995953;28;20172;-68
2021/11/01 04:33:00;;;;;;;7.97;7.18;;;10.80;84.80;;;;;;4988926;28;20033;-67
2021/11/01 04:35:29;;;;;;;8.77;6.90;;;10.90;84.80;;;;;;4990858;28;20030;-65
2021/11/01 04:38:03;;;;;;;9.48;8.07;;;10.90;84.70;;;;;;4987401;28;20057;-65
2021/11/01 04:54:23;;;;;;;6.43;5.82;;;11.00;85.10;;;;;;5007827;28;20041;-65
2021/11/01 04:56:49;;;;;;;7.18;6.20;;;11.00;85.20;;;;;;4985430;28;20045;-66
2021/11/01 04:59:15;;;;;;;8.07;6.78;;;11.00;85.20;;;;;;4986948;28;20121;-66
2021/11/01 05:01:45;;;;;;;6.80;5.97;;;11.00;85.30;;;;;;4993104;28;20163;-66
2021/11/01 05:04:15;;;;;;;10.82;9.00;;;11.10;85.50;;;;;;4991062;28;20558;-66
2021/11/01 05:06:47;;;;;;;12.95;10.13;;;11.10;85.40;;;;;;4991415;28;20052;-66
2021/11/01 05:09:18;;;;;;;8.63;6.63;;;11.20;85.40;;;;;;4989547;28;20452;-66
2021/11/01 05:14:29;;;;;;;7.40;6.32;;;11.30;85.50;;;;;;4993485;28;20129;-66
2021/11/01 05:19:30;;;;;;;7.13;6.22;;;11.40;85.60;;;;;;4992530;28;20034;-66
2021/11/01 05:22:17;;;;;;;6.47;5.88;;;11.40;85.50;;;;;;5005406;28;20045;-66
2021/11/01 05:24:48;;;;;;;6.15;5.50;;;11.40;86.20;;;;;;5013090;28;20041;-66
2021/11/01 05:29:49;;;;;;;6.32;5.65;;;11.50;85.20;;;;;;4999948;28;20034;-66
2021/11/01 05:32:28;;;;;;;5.88;5.38;;;11.60;85.30;;;;;;5008537;28;20038;-66
2021/11/01 05:34:53;;;;;;;7.82;5.35;;;11.60;85.30;;;;;;5007853;28;20056;-66
2021/11/01 05:37:19;;;;;;;6.10;5.32;;;11.60;85.20;;;;;;5009579;28;20049;-66
2021/11/01 05:39:44;;;;;;;6.45;5.38;;;11.70;85.30;;;;;;4998606;28;20038;-66
2021/11/01 05:42:10;;;;;;;6.78;5.00;;;11.70;85.20;;;;;;4986802;28;20026;-66
2021/11/01 05:44:36;;;;;;;5.85;5.28;;;11.70;85.20;;;;;;4992005;28;20042;-66
2021/11/01 05:47:05;;;;;;;12.10;10.93;;;11.70;85.00;;;;;;4988029;28;20057;-66
2021/11/01 05:49:31;;;;;;;10.23;9.23;;;11.80;85.00;;;;;;4991825;28;20037;-66
2021/11/01 05:51:57;;;;;;;5.13;4.63;;;11.80;84.80;;;;;;4990297;28;20040;-66
2021/11/01 05:54:26;;;;;;;6.25;4.60;;;11.80;84.90;;;;;;4993308;28;20034;-66
2021/11/01 06:10:08;;;;;;;1.33;1.23;;;12.00;85.50;;;;;;4995649;28;20402;-66
2021/11/01 06:15:19;;;;;;;1.05;0.95;;;12.10;84.90;;;;;;5001107;28;20045;-66
2021/11/01 06:17:45;;;;;;;0.90;0.38;;;12.20;84.50;;;;;;5015676;28;20038;-66
2021/11/01 06:20:12;;;;;;;0.10;0.10;;;12.20;84.00;;;;;;5019579;28;20034;-66
2021/11/01 06:22:39;;;;;;;0.10;0.10;;;12.20;82.90;;;;;;5019206;28;20026;-66
2021/11/01 06:25:06;;;;;;;0.05;0.05;;;12.30;82.10;;;;;;5017610;28;20535;-66
2021/11/01 06:27:33;;;;;;;0.57;0.10;;;12.30;81.70;;;;;;5020241;28;20049;-66
2021/11/01 06:32:43;;;;;;;0.17;0.00;;;12.30;81.00;;;;;;5018164;28;20033;-66
2021/11/01 06:44:23;;;;;;;1.27;0.10;;;12.40;79.10;;;;;;5018000;28;20056;-67
2021/11/01 06:56:43;;;;;;;0.20;0.03;;;12.30;78.80;;;;;;5019089;28;20712;-66
2021/11/01 07:15:29;;;;;;;0.93;0.93;;;12.30;79.30;;;;;;5017989;28;20044;-66
2021/11/01 07:20:39;;;;;;;0.40;0.20;;;12.30;79.50;;;;;;5005210;28;20512;-65
2021/11/01 07:26:09;;;;;;;0.30;0.20;;;12.20;79.80;;;;;;5013232;28;20050;-66
2021/11/01 09:18:44;;;;;;;0.73;0.57;;;11.90;81.30;;;;;;5012367;28;20122;-65
2021/11/01 09:27:07;;;;;;;4.50;0.45;;;11.90;81.40;;;;;;5012782;28;20523;-64
2021/11/01 09:38:40;;;;;;;1.55;1.30;;;11.80;81.30;;;;;;4995786;28;20037;-65
2021/11/01 09:41:08;;;;;;;0.85;0.80;;;11.80;81.30;;;;;;5029437;28;20473;-65
2021/11/01 09:43:36;;;;;;;2.00;1.10;;;11.80;81.30;;;;;;5016396;28;20042;-66
2021/11/01 09:46:05;;;;;;;1.20;0.80;;;11.80;81.30;;;;;;5013806;28;20061;-65
2021/11/01 09:48:31;;;;;;;1.02;0.80;;;11.80;81.50;;;;;;5012871;28;20119;-66
2021/11/01 09:50:57;;;;;;;1.00;0.73;;;11.80;81.70;;;;;;5013905;28;20038;-65
2021/11/01 09:53:30;;;;;;;1.63;0.55;;;11.80;81.70;;;;;;5006782;28;20029;-65
2021/11/01 09:59:24;;;;;;;5.93;2.50;;;11.80;81.90;;;;;;5006113;28;20040;-66
2021/11/01 10:01:22;;;;;;;2.80;2.53;;;11.80;81.80;;;;;;5010983;28;20574;-66
2021/11/01 10:03:50;;;;;;;4.65;2.78;;;11.80;81.80;;;;;;5013270;28;20132;-65
2021/11/01 10:06:22;;;;;;;3.72;2.85;;;11.70;81.90;;;;;;5012408;28;20069;-66
2021/11/01 10:09:02;;;;;;;1.00;0.80;;;11.80;82.00;;;;;;5012816;28;20136;-65
2021/11/01 10:11:34;;;;;;;0.52;0.52;;;11.80;82.30;;;;;;5008860;28;20109;-66
2021/11/01 10:14:02;;;;;;;1.13;0.60;;;11.80;82.20;;;;;;5012264;28;20155;-63
2021/11/01 10:19:37;;;;;;;2.33;0.60;;;11.80;82.00;;;;;;5013574;28;20053;-66
2021/11/01 10:22:07;;;;;;;0.77;0.40;;;11.80;82.20;;;;;;5015289;28;20034;-65
2021/11/01 10:24:39;;;;;;;0.30;0.20;;;11.80;82.10;;;;;;5011487;28;20048;-66
2021/11/01 10:27:10;;;;;;;1.17;0.50;;;11.80;82.10;;;;;;5012654;28;20041;-65
2021/11/01 10:29:48;;;;;;;2.97;0.93;;;11.80;82.20;;;;;;5014483;28;20168;-65
2021/11/01 10:32:13;;;;;;;17.48;12.80;;;11.80;82.40;;;;;;5012902;28;20044;-65
2021/11/01 10:34:40;;;;;;;9.10;6.25;;;11.80;82.10;;;;;;5011149;28;20037;-65
2021/11/01 10:37:12;;;;;;;3.65;2.90;;;11.80;82.10;;;;;;5009160;28;20037;-65
2021/11/01 10:39:38;;;;;;;1.02;0.93;;;11.80;82.10;;;;;;5013465;28;20100;-65
2021/11/01 10:42:28;;;;;;;1.40;1.13;;;11.70;82.00;;;;;;5013437;28;20038;-65
2021/11/01 10:56:27;;;;;;;0.82;0.63;;;11.70;82.00;;;;;;5016605;28;20068;-65
2021/11/01 11:12:40;;;;;;;0.60;0.60;;;11.60;82.60;;;;;;5013951;28;20206;-67
2021/11/01 11:15:14;;;;;;;2.08;0.47;;;11.60;82.70;;;;;;5019940;28;20044;-66
2021/11/01 11:18:01;;;;;;;0.40;0.40;;;11.60;82.90;;;;;;5020328;28;20397;-66
2021/11/01 11:31:17;;;;;;;3.00;2.20;;;11.50;83.80;;;;;;5019895;28;20109;-66
2021/11/01 11:33:56;;;;;;;3.55;3.25;;;11.60;83.80;;;;;;5019001;28;20045;-65
2021/11/01 11:48:18;;;;;;;0.70;0.70;;;11.60;83.30;;;;;;5017547;28;20569;-66
2021/11/01 11:50:36;;;;;;;1.73;1.52;;;11.50;83.00;;;;;;5017331;28;20038;-66
2021/11/01 11:53:08;;;;;;;1.30;0.93;;;11.50;82.90;;;;;;5016917;28;20053;-66
2021/11/01 11:55:34;;;;;;;2.13;1.73;;;11.50;83.00;;;;;;5024188;28;20034;-66
2021/11/01 11:58:06;;;;;;;4.25;1.40;;;11.50;83.00;;;;;;5019051;28;20036;-66
2021/11/01 12:00:34;;;;;;;6.03;3.20;;;11.40;83.20;;;;;;5017174;28;20412;-66
2021/11/01 12:03:12;;;;;;;2.08;1.70;;;11.40;83.10;;;;;;5018961;28;20026;-67
2021/11/01 12:05:59;;;;;;;5.03;3.90;;;11.40;83.40;;;;;;5018595;28;20026;-66
2021/11/01 12:08:40;;;;;;;8.95;5.60;;;11.40;83.40;;;;;;5017729;28;20034;-67
2021/11/01 12:18:59;;;;;;;2.78;2.10;;;11.40;83.70;;;;;;5015748;28;20064;-67
2021/11/01 12:21:27;;;;;;;1.33;1.23;;;11.40;83.80;;;;;;5017437;28;20034;-67
2021/11/01 12:23:53;;;;;;;3.15;1.70;;;11.40;83.60;;;;;;5017825;28;20065;-67
2021/11/01 12:26:23;;;;;;;3.50;3.20;;;11.40;83.60;;;;;;5017619;28;20038;-67
2021/11/01 12:28:59;;;;;;;3.00;2.38;;;11.40;83.40;;;;;;5016172;28;20030;-66
2021/11/01 12:31:27;;;;;;;3.30;2.20;;;11.40;83.30;;;;;;5017186;28;20037;-66
2021/11/01 12:36:28;;;;;;;2.83;2.22;;;11.40;83.10;;;;;;5015950;28;20042;-66
2021/11/01 12:39:11;;;;;;;2.03;1.63;;;11.40;83.30;;;;;;5015592;28;20048;-66
2021/11/01 12:49:56;;;;;;;2.13;1.65;;;11.30;83.30;;;;;;5013165;28;20455;-67
2021/11/01 12:57:57;;;;;;;1.10;0.93;;;11.20;83.30;;;;;;5015017;28;20520;-67
2021/11/01 13:00:23;;;;;;;4.57;1.65;;;11.10;83.20;;;;;;5013646;28;20046;-67
2021/11/01 13:02:49;;;;;;;1.77;1.45;;;11.10;83.30;;;;;;5016351;28;20056;-67
2021/11/01 13:05:22;;;;;;;1.48;1.38;;;11.10;83.40;;;;;;5011443;28;20588;-67
2021/11/01 13:18:36;;;;;;;0.70;0.70;;;11.00;83.90;;;;;;5015578;28;20053;-66
2021/11/01 13:21:13;;;;;;;1.08;0.80;;;10.90;83.90;;;;;;5016703;28;20599;-66
2021/11/01 13:24:03;;;;;;;1.77;0.80;;;10.90;84.30;;;;;;5016058;28;20045;-67
2021/11/01 13:34:43;;;;;;;0.70;0.70;;;10.90;84.30;;;;;;5015572;28;20026;-66
2021/11/01 13:35:02;;;;;;;2.47;1.20;;;10.80;84.50;;;;;;5014908;28;20079;-67
2021/11/01 13:37:32;;;;;;;1.30;1.20;;;10.80;84.60;;;;;;5016461;28;20850;-67
2021/11/01 13:40:16;;;;;;;1.00;0.90;;;10.80;84.70;;;;;;5015670;28;20034;-67
2021/11/01 13:43:02;;;;;;;0.85;0.80;;;10.80;85.30;;;;;;5015181;28;20044;-67
2021/11/01 13:45:28;;;;;;;0.98;0.70;;;10.80;85.30;;;;;;5014967;28;20112;-67
2021/11/01 13:47:57;;;;;;;1.00;0.65;;;10.80;84.80;;;;;;5016518;28;20042;-67
2021/11/01 13:50:34;;;;;;;0.70;0.50;;;10.80;85.10;;;;;;5014641;28;20130;-66
2021/11/01 13:53:21;;;;;;;0.80;0.70;;;10.80;85.20;;;;;;5015295;28;20316;-66
2021/11/01 13:55:56;;;;;;;2.22;1.30;;;10.80;85.20;;;;;;5016739;28;20532;-66
2021/11/01 14:14:31;;;;;;;0.50;0.50;;;10.80;85.00;;;;;;5015272;28;20030;-66
2021/11/01 15:00:20;;;;;;;1.02;0.95;;;10.90;84.70;;;;;;5019249;28;20489;-67
2021/11/01 15:13:52;;;;;;;1.55;1.40;;;11.00;84.90;;;;;;5017673;28;20080;-67
2021/11/01 15:16:32;;;;;;;1.73;1.35;;;11.00;84.70;;;;;;5019206;28;20065;-67
2021/11/01 15:21:34;;;;;;;2.75;2.42;;;11.00;84.50;;;;;;5019047;28;20033;-67
2021/11/01 15:37:28;;;;;;;1.48;1.38;;;11.10;84.40;;;;;;5018343;28;20041;-67
2021/11/01 16:18:33;;;;;;;1.20;1.10;;;11.00;83.40;;;;;;5016966;28;20041;-66
2021/11/01 16:20:59;;;;;;;0.75;0.75;;;11.00;83.40;;;;;;5018720;28;20099;-64
2021/11/01 16:23:34;;;;;;;0.93;0.73;;;11.00;83.50;;;;;;5018084;28;20064;-67
2021/11/01 16:26:04;;;;;;;1.90;1.50;;;11.00;83.60;;;;;;5017170;28;20030;-66
2021/11/01 16:28:32;;;;;;;1.67;1.10;;;11.00;83.60;;;;;;5015887;28;20038;-67
2021/11/01 16:33:48;;;;;;;2.63;2.42;;;11.00;84.40;;;;;;5017295;28;20037;-66
2021/11/01 16:37:22;;;;;;;2.30;2.10;;;11.00;83.60;;;;;;5016839;28;20065;-66
2021/11/01 16:39:18;;;;;;;3.08;2.88;;;10.90;83.60;;;;;;5012265;28;20034;-66
2021/11/01 16:41:46;;;;;;;4.90;4.50;;;10.90;83.60;;;;;;5016227;28;20048;-66
2021/11/01 16:46:52;;;;;;;2.00;1.90;;;10.90;83.60;;;;;;4999017;28;20391;-66
2021/11/01 16:49:20;;;;;;;1.92;1.70;;;10.90;83.60;;;;;;4998177;28;20038;-67
2021/11/01 16:51:47;;;;;;;2.40;2.20;;;10.80;83.50;;;;;;4993794;28;20806;-67
2021/11/01 16:54:17;;;;;;;3.13;2.92;;;10.80;83.50;;;;;;4997035;28;20034;-67
2021/11/01 16:59:37;;;;;;;2.97;2.60;;;10.80;83.60;;;;;;4995172;28;20136;-67
2021/11/01 17:05:03;;;;;;;1.73;1.63;;;10.80;83.70;;;;;;4996886;28;20030;-66
2021/11/01 18:50:47;;;;;;;1.73;1.52;;;10.40;82.60;;;;;;5016700;28;20579;-66
2021/11/01 18:52:10;;;;;;;2.78;2.10;;;10.40;82.70;;;;;;5019133;28;20137;-66
2021/11/01 18:54:41;;;;;;;1.95;1.70;;;10.40;82.80;;;;;;5019627;28;20038;-64
2021/11/01 18:57:10;;;;;;;1.52;1.25;;;10.40;82.90;;;;;;5019530;28;20054;-66
2021/11/01 18:59:38;;;;;;;1.20;1.10;;;10.40;82.70;;;;;;5019950;28;20117;-66
2021/11/01 19:04:50;;;;;;;1.30;1.00;;;10.40;82.60;;;;;;5014465;28;20029;-65
2021/11/01 19:07:42;;;;;;;1.10;0.90;;;10.40;83.40;;;;;;5017196;28;20463;-65
2021/11/01 20:13:56;;;;;;;1.10;0.90;;;10.00;83.60;;;;;;5017236;28;20505;-65
2021/11/01 21:25:54;;;;;;;1.50;1.40;;;10.10;83.10;;;;;;5016496;28;20099;-65
2021/11/01 21:28:21;;;;;;;1.65;1.52;;;10.10;82.90;;;;;;5017114;28;20524;-65
2021/11/01 21:30:47;;;;;;;1.30;1.20;;;10.10;83.50;;;;;;5014703;28;20038;-65
2021/11/01 21:33:17;;;;;;;1.30;1.20;;;10.10;82.50;;;;;;5015596;28;20113;-65
2021/11/01 21:35:48;;;;;;;1.35;1.25;;;10.00;82.40;;;;;;5015489;28;20045;-66
2021/11/01 21:38:14;;;;;;;1.15;1.05;;;10.00;82.30;;;;;;5016224;28;20036;-66
2021/11/01 21:40:44;;;;;;;1.48;1.20;;;10.00;82.30;;;;;;5012252;28;20111;-65
2021/11/01 21:43:10;;;;;;;1.50;1.40;;;10.00;82.40;;;;;;5013045;28;20569;-65
2021/11/01 21:45:35;;;;;;;2.10;1.55;;;9.90;82.40;;;;;;5016807;28;20034;-65
2021/11/01 21:48:01;;;;;;;1.58;1.40;;;9.90;82.40;;;;;;5013622;28;20037;-66
2021/11/01 21:50:27;;;;;;;1.90;1.33;;;9.90;82.30;;;;;;5013647;28;20026;-66
2021/11/01 21:52:54;;;;;;;1.60;1.45;;;9.90;82.40;;;;;;5016968;28;20401;-66
2021/11/01 21:55:23;;;;;;;1.50;1.35;;;9.80;82.30;;;;;;5015838;28;20113;-66
2021/11/01 21:57:55;;;;;;;1.50;1.40;;;9.80;82.40;;;;;;5015443;28;20428;-66
2021/11/01 22:40:37;;;;;;;1.93;1.83;;;9.30;81.70;;;;;;4995114;28;20060;-66
2021/11/01 22:43:10;;;;;;;2.38;2.17;;;9.20;81.90;;;;;;4994871;28;20046;-66
2021/11/01 22:48:39;;;;;;;2.22;1.80;;;9.10;81.80;;;;;;4995211;28;20502;-66
2021/11/01 22:59:12;;;;;;;3.13;2.05;;;8.90;81.20;;;;;;4990901;28;20045;-65
2021/11/01 23:01:41;;;;;;;2.03;1.85;;;8.80;80.90;;;;;;4996650;28;20031;-65
2021/11/01 23:33:50;;;;;;;3.92;2.70;;;8.30;81.70;;;;;;4987611;28;20168;-67
2021/11/01 23:36:15;;;;;;;2.85;2.60;;;8.30;81.90;;;;;;4994179;28;20120;-67
2021/11/01 23:38:41;;;;;;;3.38;3.05;;;8.30;82.00;;;;;;4993212;28;20034;-67
2021/11/01 23:41:07;;;;;;;3.47;3.15;;;8.30;82.30;;;;;;4991526;28;20045;-67
2021/11/01 23:43:34;;;;;;;3.42;2.88;;;8.20;82.30;;;;;;4994588;28;20037;-67
2021/11/01 23:46:00;;;;;;;3.65;2.85;;;8.20;82.50;;;;;;4989902;28;20433;-67
2021/11/01 23:48:26;;;;;;;3.10;2.80;;;8.20;82.80;;;;;;4986268;28;20071;-67
2021/11/01 23:50:52;;;;;;;4.10;3.70;;;8.20;82.90;;;;;;4991761;28;20508;-67
2021/11/01 23:56:12;;;;;;;6.15;5.18;;;8.30;83.10;;;;;;4989860;28;20572;-65
2021/11/01 23:58:40;;;;;;;6.88;5.80;;;8.30;83.10;;;;;;5009487;28;20100;-67
